Time;durP1;ratioP1;P1;durP2;ratioP2;P2;SDS_P1;SDS_P2;PMS_P1;PMS_P2;Temp;Humidity;BMP_temperature;BMP_pressure;BME280_temperature;BME280_humidity;BME280_pressure;Samples;Min_cycle;Max_cycle;Signal;HPM_P1;HPM_P2
2023/08/18 00:00:18;;;;;;;3.80;2.33;;;;;;;;;;5066758;28;20064;-64
2023/08/18 00:02:45;;;;;;;4.35;2.33;;;;;;;;;;5074284;28;20044;-62
2023/08/18 00:05:12;;;;;;;5.50;2.95;;;;;;;;;;5072957;28;20060;-62
2023/08/18 00:07:41;;;;;;;4.47;2.45;;;;;;;;;;5061833;28;20134;-61
2023/08/18 00:10:10;;;;;;;5.03;2.55;;;;;;;;;;5071676;28;20041;-63
2023/08/18 00:12:39;;;;;;;4.45;2.50;;;;;;;;;;5080120;28;21277;-63
2023/08/18 00:15:07;;;;;;;4.85;2.53;;;;;;;;;;5081821;28;20060;-63
2023/08/18 00:17:33;;;;;;;6.85;2.67;;;;;;;;;;5077878;28;20056;-65
2023/08/18 00:20:00;;;;;;;6.60;2.40;;;;;;;;;;5081085;28;20133;-63
2023/08/18 00:22:28;;;;;;;6.00;2.83;;;;;;;;;;5072661;28;20052;-63
2023/08/18 00:24:55;;;;;;;6.93;2.45;;;;;;;;;;5077491;28;20067;-63
2023/08/18 00:27:24;;;;;;;5.15;2.75;;;;;;;;;;5077705;28;20056;-66
2023/08/18 00:29:50;;;;;;;5.55;2.75;;;;;;;;;;5080617;28;20060;-63
2023/08/18 00:32:17;;;;;;;6.25;2.58;;;;;;;;;;5073898;28;20051;-64
2023/08/18 00:34:44;;;;;;;4.68;2.63;;;;;;;;;;5078183;28;20048;-66
2023/08/18 00:37:13;;;;;;;5.88;2.60;;;;;;;;;;5076686;28;20144;-64
2023/08/18 00:39:39;;;;;;;4.53;2.53;;;;;;;;;;5078966;28;20088;-65
2023/08/18 00:42:07;;;;;;;10.82;2.88;;;;;;;;;;5079428;28;20115;-65
2023/08/18 00:44:35;;;;;;;7.75;2.78;;;;;;;;;;5076202;28;20131;-65
2023/08/18 00:47:04;;;;;;;3.85;2.33;;;;;;;;;;5074493;28;20052;-65
2023/08/18 00:49:32;;;;;;;5.28;2.63;;;;;;;;;;5078696;28;20195;-63
2023/08/18 00:51:58;;;;;;;5.97;2.92;;;;;;;;;;5079383;28;20044;-64
2023/08/18 00:54:28;;;;;;;7.13;2.90;;;;;;;;;;5070909;28;20194;-65
2023/08/18 00:56:55;;;;;;;5.80;2.97;;;;;;;;;;5054647;28;20051;-64
2023/08/18 00:59:22;;;;;;;9.10;3.10;;;;;;;;;;5063896;28;20052;-63
2023/08/18 01:01:51;;;;;;;6.35;3.00;;;;;;;;;;5089791;28;20092;-64
2023/08/18 01:04:17;;;;;;;5.68;2.92;;;;;;;;;;5060162;28;20047;-65
2023/08/18 01:06:44;;;;;;;6.40;3.08;;;;;;;;;;5078618;27;20055;-65
2023/08/18 01:09:14;;;;;;;6.22;2.88;;;;;;;;;;5120196;27;20059;-64
2023/08/18 01:11:53;;;;;;;7.28;2.90;;;;;;;;;;5102345;27;20051;-61
2023/08/18 01:14:33;;;;;;;7.03;3.22;;;;;;;;;;5095788;27;20051;-62
2023/08/18 01:17:07;;;;;;;8.25;3.45;;;;;;;;;;5089540;27;20058;-64
2023/08/18 01:19:35;;;;;;;5.43;2.92;;;;;;;;;;5103848;27;20062;-61
2023/08/18 01:22:05;;;;;;;6.13;3.10;;;;;;;;;;5103680;27;20138;-63
2023/08/18 01:24:34;;;;;;;6.88;3.03;;;;;;;;;;5094209;27;20059;-63
2023/08/18 01:27:02;;;;;;;5.40;2.95;;;;;;;;;;5115994;27;20050;-64
2023/08/18 01:29:29;;;;;;;6.53;2.90;;;;;;;;;;5103582;27;20086;-62
2023/08/18 01:31:59;;;;;;;8.65;3.28;;;;;;;;;;5101907;27;20145;-62
2023/08/18 01:34:28;;;;;;;5.78;2.78;;;;;;;;;;5114457;27;20284;-64
2023/08/18 01:36:57;;;;;;;6.50;2.95;;;;;;;;;;5123593;27;20062;-61
2023/08/18 01:39:24;;;;;;;6.43;3.10;;;;;;;;;;5136508;27;20058;-63
2023/08/18 01:41:53;;;;;;;6.75;2.90;;;;;;;;;;5120246;27;20069;-62
2023/08/18 01:44:20;;;;;;;6.45;2.67;;;;;;;;;;5093528;27;20092;-64
2023/08/18 01:46:47;;;;;;;5.97;2.65;;;;;;;;;;5107855;27;20059;-61
2023/08/18 01:49:14;;;;;;;7.63;2.83;;;;;;;;;;5102266;27;20055;-62
2023/08/18 01:51:41;;;;;;;6.03;2.63;;;;;;;;;;5120320;27;20059;-61
2023/08/18 01:54:07;;;;;;;6.05;2.75;;;;;;;;;;5118244;27;20051;-61
2023/08/18 01:56:34;;;;;;;6.45;2.90;;;;;;;;;;5092458;27;20066;-63
2023/08/18 01:59:04;;;;;;;6.75;3.03;;;;;;;;;;5101256;27;20071;-64
2023/08/18 02:01:31;;;;;;;7.85;2.97;;;;;;;;;;5098531;28;20162;-63
2023/08/18 02:03:58;;;;;;;6.28;3.05;;;;;;;;;;5072830;27;20052;-63
2023/08/18 02:06:24;;;;;;;10.50;3.20;;;;;;;;;;5093157;27;20075;-63
2023/08/18 02:08:51;;;;;;;7.78;3.15;;;;;;;;;;5099166;28;20119;-62
2023/08/18 02:11:18;;;;;;;5.15;2.60;;;;;;;;;;5098924;28;20128;-63
2023/08/18 02:13:44;;;;;;;5.72;2.65;;;;;;;;;;5091879;28;20050;-63
2023/08/18 02:16:13;;;;;;;4.70;2.67;;;;;;;;;;5095799;28;20087;-62
2023/08/18 02:18:40;;;;;;;8.90;3.22;;;;;;;;;;5077846;27;20083;-60
2023/08/18 02:21:07;;;;;;;6.28;2.67;;;;;;;;;;5085266;28;20059;-63
2023/08/18 02:23:34;;;;;;;6.18;2.80;;;;;;;;;;5097272;28;20040;-63
2023/08/18 02:26:02;;;;;;;7.22;2.63;;;;;;;;;;5095080;27;20135;-60
2023/08/18 02:28:29;;;;;;;4.80;2.45;;;;;;;;;;5089969;27;20082;-64
2023/08/18 02:31:00;;;;;;;6.35;2.72;;;;;;;;;;5098395;28;20083;-61
2023/08/18 02:33:29;;;;;;;7.60;2.80;;;;;;;;;;5099186;28;20146;-63
2023/08/18 02:35:56;;;;;;;5.43;2.53;;;;;;;;;;5093842;28;20059;-64
2023/08/18 02:38:22;;;;;;;11.05;2.88;;;;;;;;;;5092367;27;20075;-64
2023/08/18 02:40:49;;;;;;;4.85;2.50;;;;;;;;;;5098931;28;20059;-63
2023/08/18 02:43:16;;;;;;;5.95;2.63;;;;;;;;;;5099422;28;20101;-61
2023/08/18 02:45:43;;;;;;;7.22;2.78;;;;;;;;;;5093009;28;20327;-63
2023/08/18 02:48:11;;;;;;;10.02;3.03;;;;;;;;;;5094359;28;20056;-63
2023/08/18 02:50:39;;;;;;;5.85;2.90;;;;;;;;;;5097648;27;20055;-61
2023/08/18 02:53:06;;;;;;;5.90;2.78;;;;;;;;;;5102025;28;20039;-62
2023/08/18 02:55:34;;;;;;;5.05;2.70;;;;;;;;;;5094350;27;20087;-65
2023/08/18 02:58:01;;;;;;;8.00;2.50;;;;;;;;;;5115333;27;20105;-64
2023/08/18 03:00:28;;;;;;;5.07;2.75;;;;;;;;;;5106433;27;20044;-61
2023/08/18 03:02:54;;;;;;;6.38;3.00;;;;;;;;;;5133427;27;20115;-64
2023/08/18 03:05:21;;;;;;;9.27;3.35;;;;;;;;;;5094693;28;20093;-62
2023/08/18 03:07:49;;;;;;;5.53;2.80;;;;;;;;;;5101583;28;20051;-62
2023/08/18 03:10:16;;;;;;;7.55;2.72;;;;;;;;;;5113808;27;20063;-62
2023/08/18 03:12:43;;;;;;;6.40;2.90;;;;;;;;;;5100610;28;20055;-64
2023/08/18 03:15:10;;;;;;;6.68;3.05;;;;;;;;;;5095950;28;20059;-63
2023/08/18 03:17:37;;;;;;;6.00;2.88;;;;;;;;;;5100571;28;20163;-64
2023/08/18 03:20:07;;;;;;;6.70;3.17;;;;;;;;;;5100805;28;20051;-60
2023/08/18 03:22:34;;;;;;;7.13;3.08;;;;;;;;;;5113396;27;20063;-61
2023/08/18 03:25:03;;;;;;;8.95;3.47;;;;;;;;;;5114142;28;20067;-62
2023/08/18 03:27:30;;;;;;;12.75;3.20;;;;;;;;;;5119232;28;20059;-63
2023/08/18 03:29:57;;;;;;;5.80;3.13;;;;;;;;;;5101670;28;20142;-62
2023/08/18 03:32:24;;;;;;;10.03;3.70;;;;;;;;;;5093225;27;20047;-63
2023/08/18 03:34:53;;;;;;;7.72;3.92;;;;;;;;;;5086400;28;20378;-62
2023/08/18 03:37:19;;;;;;;;;;;;;;;;;;5101439;28;20051;-61
2023/08/18 03:39:46;;;;;;;7.63;3.20;;;;;;;;;;5100572;28;19924;-62
2023/08/18 03:42:14;;;;;;;10.70;3.42;;;;;;;;;;5111813;27;20060;-63
2023/08/18 03:44:40;;;;;;;7.20;3.53;;;;;;;;;;5087625;27;20082;-63
2023/08/18 03:47:07;;;;;;;6.82;3.63;;;;;;;;;;5119533;27;20134;-63
2023/08/18 03:49:34;;;;;;;8.32;3.58;;;;;;;;;;5122149;27;20051;-63
2023/08/18 03:52:00;;;;;;;9.30;3.67;;;;;;;;;;5119381;27;20052;-63
2023/08/18 03:54:27;;;;;;;6.57;3.33;;;;;;;;;;5091330;27;20051;-64
2023/08/18 03:56:54;;;;;;;8.15;3.65;;;;;;;;;;5104602;27;20135;-65
2023/08/18 03:59:22;;;;;;;8.05;3.83;;;;;;;;;;5104710;27;20051;-64
2023/08/18 04:01:48;;;;;;;7.38;3.50;;;;;;;;;;5122583;27;20135;-65
2023/08/18 04:04:15;;;;;;;8.18;3.92;;;;;;;;;;5087278;27;20047;-63
2023/08/18 04:06:42;;;;;;;8.68;4.53;;;;;;;;;;5121786;27;20131;-61
2023/08/18 04:09:15;;;;;;;9.00;4.07;;;;;;;;;;5121156;27;20069;-61
2023/08/18 04:11:42;;;;;;;7.28;4.07;;;;;;;;;;5103173;27;20089;-64
2023/08/18 04:14:10;;;;;;;8.90;4.75;;;;;;;;;;5115139;27;20140;-65
2023/08/18 04:16:42;;;;;;;9.52;4.78;;;;;;;;;;5122181;27;20115;-63
2023/08/18 04:19:09;;;;;;;9.70;4.93;;;;;;;;;;5103011;27;20134;-64
2023/08/18 04:21:38;;;;;;;9.52;4.88;;;;;;;;;;5102563;27;20055;-63
2023/08/18 04:24:06;;;;;;;8.35;4.85;;;;;;;;;;5099319;27;20043;-63
2023/08/18 04:26:35;;;;;;;12.33;5.60;;;;;;;;;;5113070;27;20471;-63
2023/08/18 04:29:02;;;;;;;10.57;5.25;;;;;;;;;;5116299;27;20301;-64
2023/08/18 04:31:29;;;;;;;9.38;5.30;;;;;;;;;;5100517;28;20082;-63
2023/08/18 04:33:57;;;;;;;11.57;5.85;;;;;;;;;;5077324;28;20063;-63
2023/08/18 04:36:24;;;;;;;10.13;5.40;;;;;;;;;;5094603;28;20075;-63
2023/08/18 04:38:50;;;;;;;16.02;8.48;;;;;;;;;;5082781;28;20066;-60
2023/08/18 04:41:17;;;;;;;14.25;6.93;;;;;;;;;;5101675;28;20150;-63
2023/08/18 04:43:44;;;;;;;16.92;8.35;;;;;;;;;;5068123;28;20079;-62
2023/08/18 04:46:11;;;;;;;16.50;6.82;;;;;;;;;;5051303;27;20063;-63
2023/08/18 04:48:40;;;;;;;16.83;6.53;;;;;;;;;;5095922;27;20126;-64
2023/08/18 04:51:09;;;;;;;10.30;5.88;;;;;;;;;;5101855;27;20070;-62
2023/08/18 04:53:36;;;;;;;12.07;6.10;;;;;;;;;;5100690;27;20055;-65
2023/08/18 04:56:03;;;;;;;15.57;7.13;;;;;;;;;;5075875;27;20046;-61
2023/08/18 04:58:30;;;;;;;12.68;6.68;;;;;;;;;;5114032;27;20070;-61
2023/08/18 05:00:59;;;;;;;12.45;6.63;;;;;;;;;;5120261;27;20058;-62
2023/08/18 05:03:26;;;;;;;12.90;6.65;;;;;;;;;;5119598;27;20145;-62
2023/08/18 05:06:03;;;;;;;14.82;6.63;;;;;;;;;;5101705;27;20184;-64
2023/08/18 05:08:32;;;;;;;14.57;6.93;;;;;;;;;;5112614;27;20175;-62
2023/08/18 05:11:05;;;;;;;13.57;7.05;;;;;;;;;;5118905;27;20126;-61
2023/08/18 05:13:31;;;;;;;11.52;6.50;;;;;;;;;;5135266;27;20119;-63
2023/08/18 05:15:59;;;;;;;13.15;7.18;;;;;;;;;;5109331;27;20054;-63
2023/08/18 05:18:28;;;;;;;14.20;6.15;;;;;;;;;;5093151;27;20047;-62
2023/08/18 05:20:55;;;;;;;20.33;10.88;;;;;;;;;;5120038;27;20051;-63
2023/08/18 05:23:22;;;;;;;30.73;15.68;;;;;;;;;;5106084;27;20130;-60
2023/08/18 05:25:53;;;;;;;19.15;10.40;;;;;;;;;;5096591;27;20051;-60
2023/08/18 05:28:20;;;;;;;14.48;7.25;;;;;;;;;;5112348;27;20266;-63
2023/08/18 05:30:47;;;;;;;14.70;7.15;;;;;;;;;;5101029;27;20180;-62
2023/08/18 05:33:15;;;;;;;12.68;6.68;;;;;;;;;;5119707;27;20055;-63
2023/08/18 05:35:42;;;;;;;12.98;7.63;;;;;;;;;;5092673;27;20054;-64
2023/08/18 05:38:12;;;;;;;15.35;7.05;;;;;;;;;;5099625;27;20062;-64
2023/08/18 05:40:42;;;;;;;13.05;7.03;;;;;;;;;;5097760;27;20094;-63
2023/08/18 05:43:12;;;;;;;14.68;7.10;;;;;;;;;;5102051;27;20144;-65
2023/08/18 05:45:39;;;;;;;16.98;7.80;;;;;;;;;;5097416;27;20074;-62
2023/08/18 05:48:07;;;;;;;27.60;13.87;;;;;;;;;;5100044;27;20074;-61
2023/08/18 05:50:34;;;;;;;32.07;16.53;;;;;;;;;;5112755;27;20125;-62
2023/08/18 05:53:05;;;;;;;23.17;11.23;;;;;;;;;;5095907;28;20289;-62
2023/08/18 05:55:33;;;;;;;16.95;9.18;;;;;;;;;;5095109;28;20055;-62
2023/08/18 05:58:01;;;;;;;22.63;11.98;;;;;;;;;;5112881;27;20057;-64
2023/08/18 06:00:30;;;;;;;21.67;8.57;;;;;;;;;;5111770;27;20051;-62
2023/08/18 06:02:57;;;;;;;22.15;9.50;;;;;;;;;;5118772;27;20047;-62
2023/08/18 06:05:26;;;;;;;19.20;8.83;;;;;;;;;;5069317;27;20056;-63
2023/08/18 06:07:53;;;;;;;18.33;8.65;;;;;;;;;;5098229;27;20062;-62
2023/08/18 06:10:20;;;;;;;18.70;10.10;;;;;;;;;;5092951;27;20146;-63
2023/08/18 06:12:46;;;;;;;21.17;10.48;;;;;;;;;;5100924;27;20051;-61
2023/08/18 06:15:13;;;;;;;17.10;8.07;;;;;;;;;;5076531;27;20155;-62
2023/08/18 06:17:41;;;;;;;19.25;8.55;;;;;;;;;;5120617;27;20051;-63
2023/08/18 06:20:09;;;;;;;17.92;7.93;;;;;;;;;;5098970;27;20092;-62
2023/08/18 06:22:36;;;;;;;15.40;7.90;;;;;;;;;;5081275;28;20060;-63
2023/08/18 06:25:05;;;;;;;16.83;7.93;;;;;;;;;;5045013;28;20066;-64
2023/08/18 06:27:32;;;;;;;17.58;7.30;;;;;;;;;;5099378;28;20109;-64
2023/08/18 06:29:58;;;;;;;16.38;6.78;;;;;;;;;;5098294;28;20039;-65
2023/08/18 06:32:28;;;;;;;16.73;7.85;;;;;;;;;;5073318;28;20051;-62
2023/08/18 06:34:56;;;;;;;17.67;7.00;;;;;;;;;;5055816;28;20058;-63
2023/08/18 06:37:23;;;;;;;17.23;7.00;;;;;;;;;;5097751;28;20056;-61
2023/08/18 06:39:49;;;;;;;19.10;8.52;;;;;;;;;;5099041;28;20069;-63
2023/08/18 06:42:16;;;;;;;20.65;8.95;;;;;;;;;;5094524;28;20135;-63
2023/08/18 06:44:43;;;;;;;16.95;8.77;;;;;;;;;;5062443;27;20055;-66
2023/08/18 06:47:10;;;;;;;16.42;8.95;;;;;;;;;;5090936;28;20143;-63
2023/08/18 06:49:36;;;;;;;15.18;7.15;;;;;;;;;;5132419;27;20118;-62
2023/08/18 06:52:07;;;;;;;16.10;7.18;;;;;;;;;;5116957;27;20267;-64
2023/08/18 06:54:36;;;;;;;16.77;7.45;;;;;;;;;;5089698;27;20108;-62
2023/08/18 06:57:02;;;;;;;;;;;;;;;;;;5101020;28;20047;-62
2023/08/18 06:59:29;;;;;;;19.55;9.38;;;;;;;;;;5136221;27;20036;-63
2023/08/18 07:01:56;;;;;;;22.02;10.07;;;;;;;;;;5101807;28;20047;-66
2023/08/18 07:04:23;;;;;;;27.52;10.48;;;;;;;;;;5072752;27;20047;-63
2023/08/18 07:06:50;;;;;;;15.48;8.05;;;;;;;;;;5102460;28;20150;-65
2023/08/18 07:09:18;;;;;;;20.98;7.72;;;;;;;;;;5099637;28;20054;-63
2023/08/18 07:11:45;;;;;;;12.95;5.93;;;;;;;;;;5101710;28;20075;-63
2023/08/18 07:14:12;;;;;;;13.77;6.47;;;;;;;;;;5082329;27;20141;-63
2023/08/18 07:16:39;;;;;;;15.80;6.88;;;;;;;;;;5100047;28;20127;-62
2023/08/18 07:19:06;;;;;;;15.82;6.10;;;;;;;;;;5118624;27;20107;-62
2023/08/18 07:21:32;;;;;;;16.80;6.40;;;;;;;;;;5119016;27;20146;-63
2023/08/18 07:23:59;;;;;;;15.48;6.47;;;;;;;;;;5120167;27;20063;-62
2023/08/18 07:26:27;;;;;;;14.60;5.97;;;;;;;;;;5093982;27;20047;-64
2023/08/18 07:28:54;;;;;;;17.02;6.68;;;;;;;;;;5105073;27;20058;-64
2023/08/18 07:31:22;;;;;;;15.20;6.53;;;;;;;;;;5124136;27;20051;-64
2023/08/18 07:33:49;;;;;;;13.65;6.80;;;;;;;;;;5123546;27;20136;-66
2023/08/18 07:36:15;;;;;;;14.10;6.15;;;;;;;;;;5084220;27;20047;-64
2023/08/18 07:38:42;;;;;;;15.25;6.18;;;;;;;;;;5103450;27;20119;-64
2023/08/18 07:41:11;;;;;;;17.45;6.53;;;;;;;;;;5104740;27;20108;-64
2023/08/18 07:43:39;;;;;;;14.23;6.45;;;;;;;;;;5105975;27;20108;-65
2023/08/18 07:46:06;;;;;;;22.02;7.13;;;;;;;;;;5105559;27;20107;-62
2023/08/18 07:48:33;;;;;;;26.88;11.15;;;;;;;;;;5100360;27;20158;-64
2023/08/18 07:51:00;;;;;;;16.05;7.38;;;;;;;;;;5106590;27;20063;-65
2023/08/18 07:53:27;;;;;;;12.80;5.70;;;;;;;;;;5103712;27;20043;-61
2023/08/18 07:55:54;;;;;;;18.88;6.97;;;;;;;;;;5090908;27;20062;-65
2023/08/18 07:58:20;;;;;;;15.73;5.95;;;;;;;;;;5098767;27;20138;-65
2023/08/18 08:00:49;;;;;;;15.73;5.97;;;;;;;;;;5122254;27;20104;-63
2023/08/18 08:03:15;;;;;;;14.75;5.97;;;;;;;;;;5104264;27;20093;-65
2023/08/18 08:05:42;;;;;;;17.92;6.30;;;;;;;;;;5099520;27;20077;-62
2023/08/18 08:08:09;;;;;;;18.38;5.47;;;;;;;;;;5101544;27;20055;-65
2023/08/18 08:10:36;;;;;;;16.98;6.28;;;;;;;;;;5115473;27;20343;-62
2023/08/18 08:13:03;;;;;;;17.77;6.57;;;;;;;;;;5122799;27;20091;-62
2023/08/18 08:15:29;;;;;;;13.30;6.60;;;;;;;;;;5091171;27;20112;-61
2023/08/18 08:17:58;;;;;;;13.85;5.95;;;;;;;;;;5122044;27;20052;-64
2023/08/18 08:20:26;;;;;;;14.82;5.68;;;;;;;;;;5113342;27;20063;-63
2023/08/18 08:22:53;;;;;;;13.27;6.35;;;;;;;;;;5103001;27;20138;-62
2023/08/18 08:25:20;;;;;;;12.98;6.18;;;;;;;;;;5119795;27;20062;-64
2023/08/18 08:27:46;;;;;;;19.75;6.68;;;;;;;;;;5122039;27;20072;-63
2023/08/18 08:30:14;;;;;;;16.08;5.93;;;;;;;;;;5102747;27;20055;-62
2023/08/18 08:32:41;;;;;;;16.63;5.53;;;;;;;;;;5101754;28;20065;-62
2023/08/18 08:35:12;;;;;;;18.02;6.22;;;;;;;;;;5063411;27;20055;-63
2023/08/18 08:37:41;;;;;;;16.75;6.28;;;;;;;;;;5111224;27;20065;-64
2023/08/18 08:40:13;;;;;;;13.88;5.97;;;;;;;;;;5100372;28;20105;-65
2023/08/18 08:42:40;;;;;;;14.23;5.78;;;;;;;;;;5086005;28;20063;-63
2023/08/18 08:45:10;;;;;;;14.90;5.18;;;;;;;;;;5101769;27;20051;-63
2023/08/18 08:47:38;;;;;;;16.83;6.20;;;;;;;;;;5089190;28;20050;-62
2023/08/18 08:50:09;;;;;;;11.17;5.20;;;;;;;;;;5092490;27;20067;-62
2023/08/18 08:52:39;;;;;;;15.18;5.75;;;;;;;;;;5096276;28;20293;-64
2023/08/18 08:55:10;;;;;;;13.85;5.90;;;;;;;;;;5110675;27;20052;-64
2023/08/18 08:57:38;;;;;;;19.88;6.30;;;;;;;;;;5101966;28;20074;-65
2023/08/18 09:00:08;;;;;;;15.88;6.10;;;;;;;;;;5116008;27;20052;-63
2023/08/18 09:02:35;;;;;;;12.93;5.45;;;;;;;;;;5075478;28;20052;-64
2023/08/18 09:05:02;;;;;;;13.43;6.15;;;;;;;;;;5074411;28;20052;-63
2023/08/18 09:07:29;;;;;;;17.88;6.72;;;;;;;;;;5098659;28;20079;-62
2023/08/18 09:09:57;;;;;;;14.10;6.43;;;;;;;;;;5098556;28;20058;-64
2023/08/18 09:12:28;;;;;;;15.88;6.00;;;;;;;;;;5091350;27;20158;-63
2023/08/18 09:14:55;;;;;;;15.05;7.00;;;;;;;;;;5095062;28;20048;-62
2023/08/18 09:17:22;;;;;;;15.60;6.57;;;;;;;;;;5081968;28;20052;-64
2023/08/18 09:19:49;;;;;;;18.02;6.72;;;;;;;;;;5081129;28;20052;-64
2023/08/18 09:22:20;;;;;;;15.52;6.82;;;;;;;;;;5077100;27;20070;-63
2023/08/18 09:24:47;;;;;;;13.18;6.15;;;;;;;;;;5091471;27;20052;-64
2023/08/18 09:27:16;;;;;;;12.38;6.43;;;;;;;;;;5080514;28;20052;-61
2023/08/18 09:29:42;;;;;;;;;;;;;;;;;;5099623;28;20047;-62
2023/08/18 09:32:12;;;;;;;12.70;6.18;;;;;;;;;;5080776;28;19923;-65
2023/08/18 09:34:38;;;;;;;17.05;7.35;;;;;;;;;;5058183;28;20067;-66
2023/08/18 09:37:05;;;;;;;12.73;6.55;;;;;;;;;;5077387;28;20060;-64
2023/08/18 09:39:32;;;;;;;19.35;7.88;;;;;;;;;;5077647;28;20054;-63
2023/08/18 09:42:00;;;;;;;14.55;6.80;;;;;;;;;;5102844;27;20086;-65
2023/08/18 09:44:28;;;;;;;14.65;8.13;;;;;;;;;;5077626;28;20093;-63
2023/08/18 09:46:57;;;;;;;14.35;6.35;;;;;;;;;;5097655;27;20051;-63
2023/08/18 09:49:25;;;;;;;12.55;6.82;;;;;;;;;;5099452;28;20067;-65
2023/08/18 09:51:53;;;;;;;12.48;6.82;;;;;;;;;;5096758;27;20059;-63
2023/08/18 09:54:22;;;;;;;15.73;7.68;;;;;;;;;;5039150;27;20073;-63
2023/08/18 09:56:51;;;;;;;10.65;6.10;;;;;;;;;;5045443;28;20056;-64
2023/08/18 09:59:23;;;;;;;12.90;6.38;;;;;;;;;;5094020;27;20061;-62
2023/08/18 10:01:56;;;;;;;12.98;6.38;;;;;;;;;;5101819;27;20058;-63
2023/08/18 10:04:25;;;;;;;13.00;6.40;;;;;;;;;;5046433;28;20098;-63
2023/08/18 10:06:52;;;;;;;13.38;6.28;;;;;;;;;;5094581;28;20043;-62
2023/08/18 10:09:22;;;;;;;13.87;6.83;;;;;;;;;;5079085;28;20052;-64
2023/08/18 10:11:51;;;;;;;11.63;5.88;;;;;;;;;;5081571;28;20043;-62
2023/08/18 10:14:32;;;;;;;15.68;6.43;;;;;;;;;;5055141;28;20421;-63
2023/08/18 10:17:03;;;;;;;18.13;6.82;;;;;;;;;;5074332;28;20071;-63
2023/08/18 10:19:49;;;;;;;12.75;6.70;;;;;;;;;;5099779;28;20051;-63
2023/08/18 10:22:17;;;;;;;13.68;6.55;;;;;;;;;;5091478;27;20071;-64
2023/08/18 10:24:47;;;;;;;13.02;6.82;;;;;;;;;;5093195;28;20055;-63
2023/08/18 10:27:30;;;;;;;13.88;7.53;;;;;;;;;;5095636;28;20059;-64
2023/08/18 10:29:57;;;;;;;12.60;7.25;;;;;;;;;;5100211;28;20056;-63
2023/08/18 10:32:27;;;;;;;14.70;7.95;;;;;;;;;;5092620;27;20048;-65
2023/08/18 10:35:14;;;;;;;16.05;7.93;;;;;;;;;;5082585;27;20063;-63
2023/08/18 10:37:45;;;;;;;13.13;6.72;;;;;;;;;;5098103;28;20086;-64
2023/08/18 10:40:23;;;;;;;13.20;7.15;;;;;;;;;;5094738;27;20063;-65
2023/08/18 10:42:51;;;;;;;12.80;6.32;;;;;;;;;;5097363;28;20082;-63
2023/08/18 10:45:26;;;;;;;12.05;6.45;;;;;;;;;;5084249;28;20063;-63
2023/08/18 10:47:58;;;;;;;13.55;6.85;;;;;;;;;;5099796;27;20262;-63
2023/08/18 10:50:27;;;;;;;11.10;6.00;;;;;;;;;;5092585;27;20059;-63
2023/08/18 10:53:03;;;;;;;11.45;6.13;;;;;;;;;;5100986;28;20043;-63
2023/08/18 10:55:31;;;;;;;15.38;7.05;;;;;;;;;;5092497;28;20135;-63
2023/08/18 10:57:57;;;;;;;12.25;6.25;;;;;;;;;;5098659;28;20070;-65
2023/08/18 11:00:34;;;;;;;10.93;5.88;;;;;;;;;;5094907;27;20120;-64
2023/08/18 11:03:03;;;;;;;11.48;6.47;;;;;;;;;;5101529;27;20056;-64
2023/08/18 11:05:38;;;;;;;13.80;7.65;;;;;;;;;;5051908;28;20051;-65
2023/08/18 11:08:09;;;;;;;13.40;7.50;;;;;;;;;;5088125;28;20064;-63
2023/08/18 11:10:38;;;;;;;15.30;6.22;;;;;;;;;;5097638;28;20078;-63
2023/08/18 11:13:05;;;;;;;12.75;6.65;;;;;;;;;;5095513;28;20051;-64
2023/08/18 11:15:34;;;;;;;11.40;6.05;;;;;;;;;;5086883;28;20054;-65
2023/08/18 11:18:03;;;;;;;9.95;5.72;;;;;;;;;;5107753;28;20120;-63
2023/08/18 11:20:29;;;;;;;;;;;;;;;;;;5110854;27;20125;-63
2023/08/18 11:22:58;;;;;;;11.38;5.85;;;;;;;;;;5099720;28;19943;-64
2023/08/18 11:25:27;;;;;;;11.73;6.40;;;;;;;;;;5078286;27;20062;-63
2023/08/18 11:27:54;;;;;;;13.25;7.03;;;;;;;;;;5112265;27;20070;-64
2023/08/18 11:30:23;;;;;;;13.82;6.32;;;;;;;;;;5093533;27;20055;-64
2023/08/18 11:32:50;;;;;;;12.77;6.22;;;;;;;;;;5104430;28;20043;-63
2023/08/18 11:35:19;;;;;;;9.75;5.82;;;;;;;;;;5095647;28;20055;-65
2023/08/18 11:37:47;;;;;;;13.93;6.05;;;;;;;;;;5121144;28;20055;-63
2023/08/18 11:40:14;;;;;;;;;;;;;;;;;;5095241;27;20082;-64
2023/08/18 11:42:42;;;;;;;11.20;6.38;;;;;;;;;;5101684;28;19923;-63
2023/08/18 11:45:10;;;;;;;19.77;11.15;;;;;;;;;;5133783;27;20050;-63
2023/08/18 11:47:37;;;;;;;11.48;6.60;;;;;;;;;;5101386;28;20066;-64
2023/08/18 11:50:05;;;;;;;13.10;6.50;;;;;;;;;;5134654;27;20108;-65
2023/08/18 11:52:43;;;;;;;11.82;6.78;;;;;;;;;;5091159;27;20058;-64
2023/08/18 11:55:10;;;;;;;;;;;;;;;;;;5096490;28;20071;-66
2023/08/18 11:57:40;;;;;;;16.27;7.75;;;;;;;;;;5090108;28;19931;-65
2023/08/18 12:00:14;;;;;;;12.35;6.28;;;;;;;;;;5083569;28;20060;-65
2023/08/18 12:02:46;;;;;;;12.70;6.35;;;;;;;;;;5116287;27;20063;-63
2023/08/18 12:05:21;;;;;;;11.15;6.43;;;;;;;;;;5066606;27;20107;-64
2023/08/18 12:07:52;;;;;;;10.15;5.28;;;;;;;;;;5107458;27;20071;-64
2023/08/18 12:10:19;;;;;;;14.65;7.25;;;;;;;;;;5075881;28;20055;-63
2023/08/18 12:12:51;;;;;;;10.73;6.57;;;;;;;;;;5112790;27;20116;-62
2023/08/18 12:15:18;;;;;;;10.75;6.43;;;;;;;;;;5084356;28;20071;-65
2023/08/18 12:17:48;;;;;;;10.02;5.72;;;;;;;;;;5102546;28;20052;-65
2023/08/18 12:20:15;;;;;;;14.27;6.88;;;;;;;;;;5112555;27;20151;-63
2023/08/18 12:22:42;;;;;;;13.50;7.25;;;;;;;;;;5094263;27;20151;-62
2023/08/18 12:25:13;;;;;;;12.10;6.40;;;;;;;;;;5099727;27;20146;-62
2023/08/18 12:27:41;;;;;;;12.73;6.47;;;;;;;;;;5093936;27;20100;-62
2023/08/18 12:30:16;;;;;;;;;;;;;;;;;;5100214;27;20126;-63
2023/08/18 12:32:47;;;;;;;12.57;7.32;;;;;;;;;;5083596;28;20019;-62
2023/08/18 12:35:14;;;;;;;11.40;5.68;;;;;;;;;;5090246;27;20055;-62
2023/08/18 12:37:47;;;;;;;11.27;6.72;;;;;;;;;;5103184;27;20080;-62
2023/08/18 12:40:21;;;;;;;11.82;6.25;;;;;;;;;;5102101;27;20051;-63
2023/08/18 12:42:48;;;;;;;10.60;5.95;;;;;;;;;;5106074;27;20111;-63
2023/08/18 12:45:15;;;;;;;11.82;6.20;;;;;;;;;;5118317;27;20059;-63
2023/08/18 12:47:56;;;;;;;12.10;6.40;;;;;;;;;;5120888;27;20079;-62
2023/08/18 12:50:48;;;;;;;11.25;5.82;;;;;;;;;;5100847;27;20051;-64
2023/08/18 12:53:33;;;;;;;9.02;5.40;;;;;;;;;;5114353;27;20051;-64
2023/08/18 12:56:07;;;;;;;10.50;5.65;;;;;;;;;;5070077;27;20074;-64
2023/08/18 12:58:35;;;;;;;10.13;5.32;;;;;;;;;;5100103;27;20063;-64
2023/08/18 13:01:03;;;;;;;8.15;4.85;;;;;;;;;;5083846;28;20055;-65
2023/08/18 13:03:30;;;;;;;9.65;5.57;;;;;;;;;;5116376;27;20070;-65
2023/08/18 13:05:59;;;;;;;8.18;5.07;;;;;;;;;;5068981;28;20228;-65
2023/08/18 13:08:27;;;;;;;10.02;5.57;;;;;;;;;;5106969;27;20053;-65
2023/08/18 13:10:55;;;;;;;10.40;5.68;;;;;;;;;;5107582;27;20051;-63
2023/08/18 13:13:28;;;;;;;12.27;6.30;;;;;;;;;;5098530;27;20138;-65
2023/08/18 13:15:55;;;;;;;13.63;6.93;;;;;;;;;;5070294;27;20138;-64
2023/08/18 13:18:22;;;;;;;11.13;6.30;;;;;;;;;;5102673;27;20086;-65
2023/08/18 13:20:48;;;;;;;11.15;6.20;;;;;;;;;;5121500;27;20124;-66
2023/08/18 13:23:25;;;;;;;12.30;7.30;;;;;;;;;;5104244;27;20070;-64
2023/08/18 13:25:55;;;;;;;9.90;6.43;;;;;;;;;;5116068;27;20079;-64
2023/08/18 13:28:22;;;;;;;11.65;6.72;;;;;;;;;;5105413;27;20088;-64
2023/08/18 13:30:51;;;;;;;11.05;6.15;;;;;;;;;;5110921;27;20137;-65
2023/08/18 13:33:17;;;;;;;9.05;5.88;;;;;;;;;;5093962;27;20055;-65
2023/08/18 13:35:46;;;;;;;12.93;5.65;;;;;;;;;;5121974;27;20112;-65
2023/08/18 13:38:13;;;;;;;10.77;5.35;;;;;;;;;;5129715;27;20146;-64
2023/08/18 13:40:42;;;;;;;10.27;5.63;;;;;;;;;;5103393;27;20122;-63
2023/08/18 13:43:09;;;;;;;10.15;5.80;;;;;;;;;;5088700;28;20078;-63
2023/08/18 13:45:36;;;;;;;9.25;4.78;;;;;;;;;;5096349;28;20051;-64
2023/08/18 13:48:05;;;;;;;11.02;5.10;;;;;;;;;;5083411;28;20047;-63
2023/08/18 13:50:32;;;;;;;7.35;3.92;;;;;;;;;;5075427;27;20128;-64
2023/08/18 13:52:59;;;;;;;8.55;4.38;;;;;;;;;;5127493;27;20154;-63
2023/08/18 13:55:26;;;;;;;11.00;4.57;;;;;;;;;;5117846;27;20114;-64
2023/08/18 13:57:53;;;;;;;9.93;3.63;;;;;;;;;;5123250;27;20113;-64
2023/08/18 14:00:20;;;;;;;6.60;3.75;;;;;;;;;;5133554;27;20043;-63
2023/08/18 14:02:47;;;;;;;6.25;3.42;;;;;;;;;;5102745;27;20047;-63
2023/08/18 14:05:17;;;;;;;7.15;3.67;;;;;;;;;;5101495;27;20126;-64
2023/08/18 14:07:44;;;;;;;11.55;5.00;;;;;;;;;;5119220;27;20096;-64
2023/08/18 14:10:11;;;;;;;7.20;3.97;;;;;;;;;;5117097;27;20055;-65
2023/08/18 14:12:38;;;;;;;6.90;4.03;;;;;;;;;;5101984;27;20147;-64
2023/08/18 14:15:08;;;;;;;7.40;4.15;;;;;;;;;;5108099;27;20149;-63
2023/08/18 14:17:36;;;;;;;6.43;4.07;;;;;;;;;;5134784;27;20074;-64
2023/08/18 14:20:12;;;;;;;7.28;3.72;;;;;;;;;;5101640;27;20094;-64
2023/08/18 14:22:41;;;;;;;8.13;5.10;;;;;;;;;;5101585;27;20145;-66
2023/08/18 14:25:12;;;;;;;8.45;4.05;;;;;;;;;;5100420;27;20050;-64
2023/08/18 14:27:39;;;;;;;6.28;3.60;;;;;;;;;;5132083;27;20059;-64
2023/08/18 14:30:09;;;;;;;6.22;3.42;;;;;;;;;;5119690;27;20186;-64
2023/08/18 14:32:36;;;;;;;7.60;3.75;;;;;;;;;;5099824;27;20059;-63
2023/08/18 14:35:05;;;;;;;9.77;3.33;;;;;;;;;;5106532;27;20055;-62
2023/08/18 14:37:32;;;;;;;7.78;4.78;;;;;;;;;;5136308;27;20050;-62
2023/08/18 14:40:01;;;;;;;7.78;3.83;;;;;;;;;;5102456;27;20142;-64
2023/08/18 14:42:28;;;;;;;7.20;3.88;;;;;;;;;;5116106;27;20059;-65